createdAt,value
2023-03-13T00:01:37.138Z,71.75
2023-03-13T00:04:05.122Z,71.80
2023-03-13T00:06:33.899Z,71.87
2023-03-13T00:09:02.419Z,71.92
2023-03-13T00:11:30.355Z,71.87
2023-03-13T00:13:58.601Z,71.83
2023-03-13T00:16:27.546Z,72.55
2023-03-13T00:18:57.287Z,72.63
2023-03-13T00:21:26.431Z,72.52
2023-03-13T00:23:54.385Z,72.71
2023-03-13T00:26:23.405Z,72.35
2023-03-13T00:28:51.612Z,72.01
2023-03-13T00:31:20.514Z,71.91
2023-03-13T00:33:53.041Z,71.77
2023-03-13T00:36:23.116Z,71.67
2023-03-13T00:38:51.992Z,71.97
2023-03-13T00:41:20.922Z,71.47
2023-03-13T00:43:49.262Z,71.22
2023-03-13T00:46:17.912Z,71.60
2023-03-13T00:48:45.982Z,72.07
2023-03-13T00:51:13.972Z,72.03
2023-03-13T00:53:43.985Z,71.86
2023-03-13T00:56:12.747Z,72.09
2023-03-13T00:58:42.012Z,71.48
2023-03-13T01:01:10.495Z,71.42
2023-03-13T01:03:38.696Z,71.46
2023-03-13T01:06:09.203Z,71.52
2023-03-13T01:08:37.126Z,71.11
2023-03-13T01:11:07.281Z,70.90
2023-03-13T01:13:35.323Z,70.74
2023-03-13T01:16:04.380Z,70.76
2023-03-13T01:18:32.417Z,70.52
2023-03-13T01:21:00.280Z,70.47
2023-03-13T01:23:28.521Z,69.97
2023-03-13T01:25:56.393Z,70.17
2023-03-13T01:28:26.100Z,70.00
2023-03-13T01:30:55.281Z,70.00
2023-03-13T01:33:23.263Z,70.62
2023-03-13T01:35:51.254Z,70.32
2023-03-13T01:38:19.271Z,70.09
2023-03-13T01:40:47.849Z,70.30
2023-03-13T01:43:27.926Z,69.80
2023-03-13T01:46:06.115Z,69.60
2023-03-13T01:49:07.104Z,69.51
2023-03-13T01:51:42.075Z,69.25
2023-03-13T01:54:11.102Z,68.56
2023-03-13T01:56:41.287Z,68.27
2023-03-13T01:59:11.008Z,67.83
2023-03-13T02:01:40.376Z,67.45
2023-03-13T02:04:08.449Z,66.90
2023-03-13T02:06:37.342Z,66.63
2023-03-13T02:09:06.321Z,66.15
2023-03-13T02:11:41.038Z,65.89
2023-03-13T02:14:08.980Z,65.64
2023-03-13T02:16:36.939Z,65.81
2023-03-13T02:19:09.890Z,65.86
2023-03-13T02:21:40.765Z,65.83
2023-03-13T02:24:13.161Z,65.24
2023-03-13T02:26:42.539Z,65.08
2023-03-13T02:29:18.132Z,64.41
2023-03-13T02:31:47.825Z,64.36
2023-03-13T02:34:17.285Z,64.02
2023-03-13T02:36:45.301Z,63.51
2023-03-13T02:39:13.309Z,63.03
2023-03-13T02:41:43.066Z,63.21
2023-03-13T02:44:11.152Z,63.04
2023-03-13T02:46:47.094Z,62.53
2023-03-13T02:49:23.022Z,62.36
2023-03-13T02:51:51.724Z,62.33
2023-03-13T02:54:21.503Z,62.04
2023-03-13T02:56:53.196Z,62.02
2023-03-13T02:59:21.210Z,61.53
2023-03-13T03:01:52.724Z,61.61
2023-03-13T03:04:21.973Z,62.59
2023-03-13T03:06:54.637Z,62.89
2023-03-13T03:09:23.024Z,63.00
2023-03-13T03:11:56.458Z,63.01
2023-03-13T03:14:26.743Z,63.34
2023-03-13T03:16:54.907Z,63.69
2023-03-13T03:19:22.786Z,63.88
2023-03-13T03:21:51.400Z,63.65
2023-03-13T03:24:20.570Z,62.96
2023-03-13T03:26:48.663Z,62.67
2023-03-13T03:29:25.414Z,62.08
2023-03-13T03:31:55.701Z,62.00
2023-03-13T03:34:24.029Z,61.63
2023-03-13T03:36:52.918Z,61.28
2023-03-13T03:39:20.869Z,61.09
2023-03-13T03:41:48.840Z,61.24
2023-03-13T03:44:16.855Z,61.05
2023-03-13T03:47:06.731Z,60.92
2023-03-13T03:49:38.897Z,60.57
2023-03-13T03:52:07.923Z,60.48
2023-03-13T03:54:39.556Z,60.35
2023-03-13T03:57:07.808Z,60.41
2023-03-13T03:59:37.506Z,59.87
2023-03-13T04:02:11.272Z,59.37
2023-03-13T04:04:41.428Z,59.14
2023-03-13T04:07:19.065Z,58.79
2023-03-13T04:09:47.180Z,58.78
2023-03-13T04:12:23.376Z,58.63
2023-03-13T04:14:53.959Z,58.96
2023-03-13T04:17:23.908Z,59.67
2023-03-13T04:19:51.939Z,59.33
2023-03-13T04:22:19.822Z,59.58
2023-03-13T04:24:52.551Z,59.61
2023-03-13T04:27:22.587Z,59.32
2023-03-13T04:29:52.114Z,59.41
2023-03-13T04:32:51.104Z,59.50
2023-03-13T04:35:45.558Z,59.04
2023-03-13T04:38:39.981Z,58.84
2023-03-13T04:41:17.610Z,59.02
2023-03-13T04:44:08.778Z,58.58
2023-03-13T04:46:56.978Z,58.21
2023-03-13T04:49:38.735Z,57.59
2023-03-13T04:52:19.404Z,57.45
2023-03-13T04:55:13.268Z,57.22
2023-03-13T04:57:44.361Z,57.29
2023-03-13T05:00:22.482Z,57.11
2023-03-13T05:03:12.374Z,57.62
2023-03-13T05:06:09.920Z,57.32
2023-03-13T05:08:59.850Z,57.48
2023-03-13T05:11:46.546Z,57.51
2023-03-13T05:14:37.318Z,58.12
2023-03-13T05:17:28.118Z,58.60
2023-03-13T05:20:11.243Z,59.31
2023-03-13T05:23:06.605Z,60.08
2023-03-13T05:26:00.172Z,60.96
2023-03-13T05:28:37.364Z,62.12
2023-03-13T05:31:22.199Z,62.71
2023-03-13T05:34:13.299Z,62.90
2023-03-13T05:37:01.586Z,62.90
2023-03-13T05:39:55.913Z,62.93
2023-03-13T05:42:49.754Z,62.34
2023-03-13T05:45:26.773Z,61.71
2023-03-13T05:48:11.218Z,60.91
2023-03-13T05:50:57.951Z,59.73
2023-03-13T05:53:44.593Z,59.21
2023-03-13T05:56:24.058Z,59.05
2023-03-13T05:59:13.195Z,59.24
2023-03-13T06:01:57.094Z,59.22
2023-03-13T06:04:31.097Z,60.74
2023-03-13T06:06:59.726Z,61.02
2023-03-13T06:09:28.438Z,61.49
2023-03-13T06:11:59.191Z,62.38
2023-03-13T06:14:27.529Z,62.54
2023-03-13T06:17:18.605Z,62.90
2023-03-13T06:19:47.421Z,63.41
2023-03-13T06:22:15.287Z,62.48
2023-03-13T06:24:44.669Z,61.46
2023-03-13T06:27:14.005Z,60.96
2023-03-13T06:29:41.914Z,60.22
2023-03-13T06:32:09.937Z,60.45
2023-03-13T06:34:38.009Z,59.79
2023-03-13T06:37:06.070Z,59.41
2023-03-13T06:39:34.222Z,59.32
2023-03-13T06:42:02.167Z,59.23
2023-03-13T06:44:31.415Z,59.37
2023-03-13T06:46:59.367Z,59.87
2023-03-13T06:49:27.249Z,59.68
2023-03-13T06:51:55.120Z,60.73
2023-03-13T06:54:23.120Z,61.50
2023-03-13T06:56:51.100Z,61.59
2023-03-13T06:59:19.029Z,61.78
2023-03-13T07:01:48.280Z,61.62
2023-03-13T07:04:16.395Z,61.90
2023-03-13T07:06:44.403Z,61.97
2023-03-13T07:09:12.551Z,61.16
2023-03-13T07:11:40.634Z,60.76
2023-03-13T07:14:16.365Z,60.69
2023-03-13T07:16:45.606Z,60.25
2023-03-13T07:19:15.427Z,60.02
2023-03-13T07:21:44.118Z,60.00
2023-03-13T07:24:12.195Z,59.32
2023-03-13T07:26:42.634Z,58.94
2023-03-13T07:29:16.536Z,59.26
2023-03-13T07:31:44.492Z,59.34
2023-03-13T07:34:13.953Z,59.06
2023-03-13T07:36:42.415Z,58.71
2023-03-13T07:39:10.386Z,58.97
2023-03-13T07:41:39.069Z,58.71
2023-03-13T07:44:08.522Z,58.67
2023-03-13T07:46:36.433Z,58.64
2023-03-13T07:49:04.383Z,58.88
2023-03-13T07:51:43.591Z,58.57
2023-03-13T07:54:12.319Z,58.44
2023-03-13T07:56:40.253Z,58.39
2023-03-13T07:59:08.243Z,57.97
2023-03-13T08:01:36.301Z,58.00
2023-03-13T08:04:05.604Z,58.14
2023-03-13T08:06:36.699Z,57.97
2023-03-13T08:09:05.030Z,57.93
2023-03-13T08:11:32.916Z,57.76
2023-03-13T08:14:01.034Z,57.78
2023-03-13T08:16:29.479Z,57.41
2023-03-13T08:18:58.987Z,57.49
2023-03-13T08:21:27.963Z,57.36
2023-03-13T08:23:57.882Z,57.45
2023-03-13T08:26:27.066Z,57.55
2023-03-13T08:28:55.678Z,57.24
2023-03-13T08:31:24.319Z,57.43
2023-03-13T08:33:52.359Z,57.42
2023-03-13T08:36:21.766Z,57.72
2023-03-13T08:38:49.790Z,57.43
2023-03-13T08:41:20.068Z,57.38
2023-03-13T08:43:48.279Z,57.24
2023-03-13T08:46:18.424Z,57.40
2023-03-13T08:48:50.400Z,57.23
2023-03-13T08:51:18.379Z,57.17
2023-03-13T08:53:46.354Z,56.88
2023-03-13T08:56:15.158Z,56.92
2023-03-13T08:58:44.546Z,56.70
2023-03-13T09:01:13.460Z,56.52
2023-03-13T09:03:41.628Z,56.79
2023-03-13T09:06:09.951Z,56.90
2023-03-13T09:08:38.354Z,56.55
2023-03-13T09:11:07.385Z,56.62
2023-03-13T09:13:36.167Z,56.74
2023-03-13T09:16:06.532Z,56.44
2023-03-13T09:18:34.743Z,56.03
2023-03-13T09:21:02.686Z,56.00
2023-03-13T09:23:30.677Z,55.41
2023-03-13T09:25:58.680Z,55.41
2023-03-13T09:28:26.928Z,55.32
2023-03-13T09:30:54.924Z,55.02
2023-03-13T09:33:24.945Z,54.83
2023-03-13T09:35:53.120Z,54.44
2023-03-13T09:38:21.434Z,54.50
2023-03-13T09:41:04.960Z,54.04
2023-03-13T09:43:40.434Z,54.27
2023-03-13T09:46:12.586Z,54.10
2023-03-13T09:48:42.735Z,53.70
2023-03-13T09:51:12.791Z,53.67
2023-03-13T09:53:42.962Z,53.42
2023-03-13T09:56:15.654Z,53.51
2023-03-13T09:58:46.085Z,53.61
2023-03-13T10:01:15.061Z,53.59
2023-03-13T10:03:48.236Z,53.79
2023-03-13T10:06:19.502Z,53.97
2023-03-13T10:08:47.499Z,53.54
2023-03-13T10:11:19.660Z,53.40
2023-03-13T10:13:49.054Z,53.03
2023-03-13T10:16:19.501Z,53.56
2023-03-13T10:18:50.033Z,53.72
2023-03-13T10:21:19.534Z,53.81
2023-03-13T10:23:49.496Z,53.37
2023-03-13T10:26:18.639Z,53.42
2023-03-13T10:28:46.793Z,53.23
2023-03-13T10:31:17.657Z,53.22
2023-03-13T10:33:45.635Z,53.21
2023-03-13T10:36:15.251Z,53.63
2023-03-13T10:38:49.541Z,53.24
2023-03-13T10:41:25.630Z,52.91
2023-03-13T10:43:54.155Z,52.47
2023-03-13T10:46:29.268Z,52.98
2023-03-13T10:48:57.442Z,52.80
2023-03-13T10:51:37.540Z,52.05
2023-03-13T10:54:15.151Z,51.47
2023-03-13T10:56:43.215Z,51.51
2023-03-13T10:59:22.885Z,51.84
2023-03-13T11:01:51.081Z,52.15
2023-03-13T11:04:29.851Z,52.67
2023-03-13T11:07:03.237Z,52.24
2023-03-13T11:09:31.420Z,51.86
2023-03-13T11:12:03.496Z,51.70
2023-03-13T11:14:31.417Z,51.34
2023-03-13T11:17:02.846Z,50.64
2023-03-13T11:19:43.869Z,50.47
2023-03-13T11:22:28.609Z,51.00
2023-03-13T11:25:03.211Z,50.57
2023-03-13T11:27:35.270Z,51.34
2023-03-13T11:30:12.972Z,50.92
2023-03-13T11:32:43.348Z,50.94
2023-03-13T11:35:19.054Z,51.12
2023-03-13T11:37:48.557Z,51.61
2023-03-13T11:40:20.733Z,51.89
2023-03-13T11:42:57.266Z,50.93
2023-03-13T11:45:49.595Z,50.61
2023-03-13T11:48:20.701Z,50.79
2023-03-13T11:50:49.968Z,50.87
2023-03-13T11:53:25.968Z,51.13
2023-03-13T11:55:59.338Z,50.48
2023-03-13T11:58:33.315Z,50.47
2023-03-13T12:01:03.010Z,50.64
2023-03-13T12:03:36.295Z,51.33
2023-03-13T12:06:04.425Z,52.37
2023-03-13T12:08:36.382Z,54.82
2023-03-13T12:11:07.824Z,56.77
2023-03-13T12:13:37.244Z,58.14
2023-03-13T12:16:07.999Z,60.02
2023-03-13T12:18:36.792Z,60.86
2023-03-13T12:21:06.748Z,62.34
2023-03-13T12:23:43.357Z,63.12
2023-03-13T12:26:13.530Z,63.93
2023-03-13T12:28:44.286Z,63.83
2023-03-13T12:31:20.030Z,63.50
2023-03-13T12:33:51.531Z,63.14
2023-03-13T12:36:21.543Z,62.78
2023-03-13T12:38:52.648Z,62.25
2023-03-13T12:41:24.557Z,61.37
2023-03-13T12:44:07.335Z,60.55
2023-03-13T12:46:44.181Z,60.51
2023-03-13T12:49:19.970Z,60.05
2023-03-13T12:51:54.918Z,59.15
2023-03-13T12:54:39.349Z,58.26
2023-03-13T12:57:16.261Z,57.45
2023-03-13T12:59:45.270Z,56.41
2023-03-13T13:02:16.415Z,55.59
2023-03-13T13:04:45.377Z,55.58
2023-03-13T13:07:21.709Z,55.30
2023-03-13T13:10:03.842Z,52.87
2023-03-13T13:12:32.015Z,52.07
2023-03-13T13:15:04.114Z,52.63
2023-03-13T13:18:01.332Z,52.57
2023-03-13T13:20:38.498Z,52.19
2023-03-13T13:23:23.934Z,51.57
2023-03-13T13:25:53.599Z,50.66
2023-03-13T13:28:27.518Z,50.40
2023-03-13T13:30:56.502Z,50.51
2023-03-13T13:33:41.184Z,51.37
2023-03-13T13:36:31.555Z,51.53
2023-03-13T13:38:59.719Z,50.07
2023-03-13T13:41:35.458Z,49.08
2023-03-13T13:44:26.773Z,49.68
2023-03-13T13:46:56.165Z,52.53
2023-03-13T13:49:24.506Z,55.62
2023-03-13T13:52:42.041Z,58.08
2023-03-13T13:55:33.234Z,59.58
2023-03-13T13:58:04.806Z,60.23
2023-03-13T14:00:38.203Z,60.41
2023-03-13T14:03:17.879Z,60.31
2023-03-13T14:05:45.900Z,60.64
2023-03-13T14:08:17.298Z,61.61
2023-03-13T14:10:46.890Z,62.65
2023-03-13T14:13:17.206Z,63.51
2023-03-13T14:15:46.294Z,64.43
2023-03-13T14:18:17.904Z,64.92
2023-03-13T14:20:56.891Z,66.12
2023-03-13T14:23:32.593Z,66.42
2023-03-13T14:26:00.631Z,66.79
2023-03-13T14:28:30.382Z,67.06
2023-03-13T14:30:58.958Z,67.32
2023-03-13T14:33:27.812Z,67.87
2023-03-13T14:35:57.684Z,67.82
2023-03-13T14:38:28.005Z,67.43
2023-03-13T14:40:56.497Z,67.71
2023-03-13T14:43:33.348Z,67.74
2023-03-13T14:46:01.438Z,68.25
2023-03-13T14:48:32.858Z,68.77
2023-03-13T14:51:15.217Z,68.84
2023-03-13T14:53:55.102Z,69.38
2023-03-13T14:56:30.952Z,67.55
2023-03-13T14:59:09.247Z,65.53
2023-03-13T15:01:37.218Z,64.46
2023-03-13T15:04:05.390Z,64.19
2023-03-13T15:06:33.436Z,64.46
2023-03-13T15:09:18.795Z,64.00
2023-03-13T15:11:55.362Z,64.00
2023-03-13T15:14:40.758Z,63.87
2023-03-13T15:17:17.147Z,64.06
2023-03-13T15:19:46.469Z,63.33
2023-03-13T15:22:15.022Z,61.09
2023-03-13T15:24:45.253Z,59.56
2023-03-13T15:27:18.012Z,58.96
2023-03-13T15:29:47.905Z,58.73
2023-03-13T15:32:19.880Z,58.43
2023-03-13T15:34:48.000Z,57.87
2023-03-13T15:37:15.916Z,57.39
2023-03-13T15:39:43.965Z,57.85
2023-03-13T15:42:11.868Z,58.11
2023-03-13T15:44:39.934Z,58.07
2023-03-13T15:47:11.512Z,57.76
2023-03-13T15:49:39.489Z,58.05
2023-03-13T15:52:15.277Z,57.40
2023-03-13T15:54:43.269Z,55.84
2023-03-13T15:57:13.107Z,55.43
2023-03-13T15:59:41.488Z,53.64
2023-03-13T16:02:15.254Z,53.10
2023-03-13T16:04:43.322Z,52.50
2023-03-13T16:07:12.084Z,52.11
2023-03-13T16:09:39.990Z,51.43
2023-03-13T16:12:08.542Z,51.76
2023-03-13T16:14:36.528Z,51.77
2023-03-13T16:17:05.403Z,51.74
2023-03-13T16:19:34.737Z,51.39
2023-03-13T16:22:02.725Z,50.90
2023-03-13T16:24:31.157Z,51.10
2023-03-13T16:26:59.245Z,51.23
2023-03-13T16:29:27.825Z,50.88
2023-03-13T16:31:56.033Z,50.47
2023-03-13T16:34:24.438Z,50.32
2023-03-13T16:36:54.247Z,50.32
2023-03-13T16:39:22.313Z,50.65
2023-03-13T16:41:50.372Z,51.17
2023-03-13T16:44:18.373Z,51.11
2023-03-13T16:47:02.822Z,50.89
2023-03-13T16:49:33.494Z,51.61
2023-03-13T16:52:02.891Z,51.81
2023-03-13T16:54:30.885Z,51.45
2023-03-13T16:56:58.815Z,51.08
2023-03-13T16:59:26.931Z,50.72
2023-03-13T17:01:54.891Z,50.61
2023-03-13T17:04:22.992Z,50.83
2023-03-13T17:06:52.642Z,51.08
2023-03-13T17:09:22.038Z,50.81
2023-03-13T17:11:49.981Z,51.71
2023-03-13T17:14:17.902Z,52.38
2023-03-13T17:16:45.876Z,52.99
2023-03-13T17:19:14.258Z,53.75
2023-03-13T17:21:42.177Z,54.23
2023-03-13T17:24:10.051Z,54.42
2023-03-13T17:26:39.920Z,54.64
2023-03-13T17:29:08.143Z,55.23
2023-03-13T17:31:38.583Z,55.43
2023-03-13T17:34:06.787Z,55.90
2023-03-13T17:36:35.277Z,56.23
2023-03-13T17:39:05.413Z,56.39
2023-03-13T17:41:34.881Z,56.45
2023-03-13T17:44:04.725Z,56.53
2023-03-13T17:46:35.923Z,56.90
2023-03-13T17:49:04.017Z,56.97
2023-03-13T17:51:32.866Z,57.32
2023-03-13T17:54:00.819Z,57.52
2023-03-13T17:56:29.538Z,57.72
2023-03-13T17:58:58.548Z,57.59
2023-03-13T18:01:28.569Z,57.70
2023-03-13T18:03:56.687Z,57.81
2023-03-13T18:06:25.890Z,58.15
2023-03-13T18:08:54.537Z,57.93
2023-03-13T18:11:22.625Z,58.12
2023-03-13T18:13:50.717Z,58.30
2023-03-13T18:16:30.330Z,58.49
2023-03-13T18:18:59.735Z,58.93
2023-03-13T18:21:27.794Z,59.20
2023-03-13T18:23:57.055Z,59.61
2023-03-13T18:26:27.179Z,60.46
2023-03-13T18:29:00.035Z,60.55
2023-03-13T18:31:29.807Z,61.11
2023-03-13T18:34:00.151Z,61.39
2023-03-13T18:36:28.305Z,61.81
2023-03-13T18:38:56.399Z,61.98
2023-03-13T18:41:24.602Z,62.31
2023-03-13T18:43:52.655Z,62.59
2023-03-13T18:46:21.840Z,62.87
2023-03-13T18:48:49.863Z,63.18
2023-03-13T18:51:19.721Z,63.55
2023-03-13T18:53:47.800Z,63.67
2023-03-13T18:56:20.529Z,64.00
2023-03-13T18:58:50.511Z,64.08
2023-03-13T19:01:19.507Z,64.15
2023-03-13T19:03:47.565Z,64.30
2023-03-13T19:06:21.840Z,64.48
2023-03-13T19:08:50.422Z,64.68
2023-03-13T19:11:19.136Z,64.46
2023-03-13T19:13:47.316Z,64.72
2023-03-13T19:16:16.797Z,64.87
2023-03-13T19:18:44.802Z,65.15
2023-03-13T19:21:22.002Z,65.46
2023-03-13T19:23:50.158Z,65.56
2023-03-13T19:26:19.898Z,65.66
2023-03-13T19:28:47.961Z,66.07
2023-03-13T19:31:17.629Z,66.25
2023-03-13T19:33:47.815Z,66.42
2023-03-13T19:36:16.670Z,66.56
2023-03-13T19:38:46.047Z,66.82
2023-03-13T19:41:14.471Z,67.02
2023-03-13T19:43:42.694Z,67.16
2023-03-13T19:46:22.374Z,67.11
2023-03-13T19:48:51.288Z,67.10
2023-03-13T19:51:19.269Z,67.57
2023-03-13T19:53:48.750Z,67.58
2023-03-13T19:56:18.247Z,67.68
2023-03-13T19:58:46.699Z,67.73
2023-03-13T20:01:17.428Z,67.92
2023-03-13T20:03:45.792Z,68.03
2023-03-13T20:06:18.381Z,68.16
2023-03-13T20:08:46.489Z,68.32
2023-03-13T20:11:16.039Z,68.33
2023-03-13T20:13:43.984Z,68.60
2023-03-13T20:16:12.456Z,68.43
2023-03-13T20:18:40.521Z,68.65
2023-03-13T20:21:08.444Z,68.76
2023-03-13T20:23:36.423Z,69.13
2023-03-13T20:26:05.960Z,68.95
2023-03-13T20:28:35.293Z,68.77
2023-03-13T20:31:03.263Z,69.46
2023-03-13T20:33:31.411Z,69.22
2023-03-13T20:36:00.264Z,69.73
2023-03-13T20:38:28.393Z,69.78
2023-03-13T20:40:57.237Z,69.78
2023-03-13T20:43:25.260Z,69.63
2023-03-13T20:45:54.579Z,69.65
2023-03-13T20:48:22.963Z,69.86
2023-03-13T20:50:51.697Z,70.27
2023-03-13T20:53:19.665Z,70.24
2023-03-13T20:55:48.322Z,70.55
2023-03-13T20:58:16.455Z,70.96
2023-03-13T21:00:44.751Z,70.80
2023-03-13T21:03:15.069Z,70.82
2023-03-13T21:05:43.113Z,70.41
2023-03-13T21:08:11.062Z,70.07
2023-03-13T21:10:39.290Z,69.48
2023-03-13T21:13:07.313Z,69.52
2023-03-13T21:15:35.729Z,68.87
2023-03-13T21:18:03.817Z,68.78
2023-03-13T21:20:33.284Z,68.24
2023-03-13T21:23:01.264Z,68.13
2023-03-13T21:25:29.159Z,68.00
2023-03-13T21:27:57.069Z,67.82
2023-03-13T21:30:25.353Z,67.53
2023-03-13T21:32:54.648Z,67.22
2023-03-13T21:35:23.371Z,67.86
2023-03-13T21:37:52.609Z,67.46
2023-03-13T21:40:20.576Z,67.17
2023-03-13T21:42:48.534Z,67.22
2023-03-13T21:45:16.507Z,66.93
2023-03-13T21:47:44.534Z,66.89
2023-03-13T21:50:13.361Z,67.20
2023-03-13T21:52:42.375Z,67.05
2023-03-13T21:55:12.845Z,67.15
2023-03-13T21:57:41.072Z,67.32
2023-03-13T22:00:10.615Z,67.60
2023-03-13T22:02:38.642Z,67.77
2023-03-13T22:05:07.716Z,67.60
2023-03-13T22:07:35.910Z,67.54
2023-03-13T22:10:03.833Z,67.32
2023-03-13T22:12:33.203Z,67.22
2023-03-13T22:15:01.191Z,67.98
2023-03-13T22:17:29.078Z,67.64
2023-03-13T22:19:57.027Z,67.12
2023-03-13T22:22:24.894Z,67.40
2023-03-13T22:24:54.144Z,66.99
2023-03-13T22:27:23.374Z,66.71
2023-03-13T22:29:52.929Z,66.39
2023-03-13T22:32:20.991Z,66.09
2023-03-13T22:34:49.118Z,65.72
2023-03-13T22:37:17.161Z,65.67
2023-03-13T22:39:45.047Z,65.55
2023-03-13T22:42:12.981Z,65.46
2023-03-13T22:44:40.895Z,65.24
2023-03-13T22:47:10.234Z,64.62
2023-03-13T22:49:38.369Z,64.77
2023-03-13T22:52:06.286Z,64.03
2023-03-13T22:54:34.185Z,63.94
2023-03-13T22:57:02.154Z,63.42
2023-03-13T22:59:30.088Z,63.12
2023-03-13T23:01:58.013Z,63.09
2023-03-13T23:04:27.312Z,62.55
2023-03-13T23:06:55.288Z,62.05
2023-03-13T23:09:23.138Z,61.81
2023-03-13T23:11:51.033Z,61.60
2023-03-13T23:14:18.906Z,61.20
2023-03-13T23:16:47.063Z,61.22
2023-03-13T23:19:14.992Z,61.45
2023-03-13T23:21:44.394Z,61.33
2023-03-13T23:24:12.392Z,61.51
2023-03-13T23:26:40.260Z,61.50
2023-03-13T23:29:08.378Z,60.94
2023-03-13T23:31:36.685Z,60.63
2023-03-13T23:34:04.616Z,60.99
2023-03-13T23:36:32.548Z,60.34
2023-03-13T23:39:02.972Z,60.42
2023-03-13T23:41:31.206Z,60.02
2023-03-13T23:44:00.899Z,60.31
2023-03-13T23:46:28.940Z,59.91
2023-03-13T23:48:57.324Z,59.33
2023-03-13T23:51:25.538Z,59.14
2023-03-13T23:53:53.391Z,59.35
2023-03-13T23:56:24.614Z,59.10
2023-03-13T23:58:54.042Z,59.12
